sensor_id;sensor_type;location;lat;lon;timestamp;P1;durP1;ratioP1;P2;durP2;ratioP2
6251;SDS011;3159;52.414;9.784;2023-02-27T00:00:34;5.93;;;3.20;;
6251;SDS011;3159;52.414;9.784;2023-02-27T00:03:01;5.83;;;3.20;;
6251;SDS011;3159;52.414;9.784;2023-02-27T00:05:28;6.57;;;3.67;;
6251;SDS011;3159;52.414;9.784;2023-02-27T00:07:55;7.77;;;3.90;;
6251;SDS011;3159;52.414;9.784;2023-02-27T00:10:21;11.50;;;4.10;;
6251;SDS011;3159;52.414;9.784;2023-02-27T00:12:49;9.87;;;4.37;;
6251;SDS011;3159;52.414;9.784;2023-02-27T00:15:17;10.40;;;4.20;;
6251;SDS011;3159;52.414;9.784;2023-02-27T00:17:44;5.97;;;3.97;;
6251;SDS011;3159;52.414;9.784;2023-02-27T00:20:13;6.70;;;4.10;;
6251;SDS011;3159;52.414;9.784;2023-02-27T00:22:41;9.17;;;3.83;;
6251;SDS011;3159;52.414;9.784;2023-02-27T00:25:09;7.67;;;4.00;;
6251;SDS011;3159;52.414;9.784;2023-02-27T00:27:37;8.83;;;4.23;;
6251;SDS011;3159;52.414;9.784;2023-02-27T00:30:07;7.83;;;4.90;;
6251;SDS011;3159;52.414;9.784;2023-02-27T00:32:35;11.77;;;5.10;;
6251;SDS011;3159;52.414;9.784;2023-02-27T00:35:02;7.03;;;4.23;;
6251;SDS011;3159;52.414;9.784;2023-02-27T00:37:29;9.17;;;5.00;;
6251;SDS011;3159;52.414;9.784;2023-02-27T00:39:56;12.10;;;5.17;;
6251;SDS011;3159;52.414;9.784;2023-02-27T00:42:23;8.47;;;5.20;;
6251;SDS011;3159;52.414;9.784;2023-02-27T00:44:51;10.63;;;5.80;;
6251;SDS011;3159;52.414;9.784;2023-02-27T00:47:19;8.03;;;5.37;;
6251;SDS011;3159;52.414;9.784;2023-02-27T00:49:46;9.40;;;5.23;;
6251;SDS011;3159;52.414;9.784;2023-02-27T00:52:13;10.90;;;5.83;;
6251;SDS011;3159;52.414;9.784;2023-02-27T00:54:39;8.17;;;5.20;;
6251;SDS011;3159;52.414;9.784;2023-02-27T00:57:06;10.10;;;5.03;;
6251;SDS011;3159;52.414;9.784;2023-02-27T00:59:33;10.27;;;5.00;;
6251;SDS011;3159;52.414;9.784;2023-02-27T01:02:00;8.17;;;5.00;;
6251;SDS011;3159;52.414;9.784;2023-02-27T01:04:28;6.80;;;4.30;;
6251;SDS011;3159;52.414;9.784;2023-02-27T01:06:55;9.07;;;4.57;;
6251;SDS011;3159;52.414;9.784;2023-02-27T01:09:21;10.97;;;5.00;;
6251;SDS011;3159;52.414;9.784;2023-02-27T01:11:49;9.13;;;4.27;;
6251;SDS011;3159;52.414;9.784;2023-02-27T01:14:16;6.13;;;3.90;;
6251;SDS011;3159;52.414;9.784;2023-02-27T01:16:43;6.70;;;4.43;;
6251;SDS011;3159;52.414;9.784;2023-02-27T01:19:11;7.47;;;4.43;;
6251;SDS011;3159;52.414;9.784;2023-02-27T01:21:39;6.70;;;4.50;;
6251;SDS011;3159;52.414;9.784;2023-02-27T01:24:06;7.73;;;4.30;;
6251;SDS011;3159;52.414;9.784;2023-02-27T01:26:33;9.27;;;4.77;;
6251;SDS011;3159;52.414;9.784;2023-02-27T01:29:00;10.27;;;4.40;;
6251;SDS011;3159;52.414;9.784;2023-02-27T01:31:27;6.03;;;3.93;;
6251;SDS011;3159;52.414;9.784;2023-02-27T01:33:54;5.90;;;4.10;;
6251;SDS011;3159;52.414;9.784;2023-02-27T01:36:21;7.77;;;4.57;;
6251;SDS011;3159;52.414;9.784;2023-02-27T01:38:49;7.83;;;4.23;;
6251;SDS011;3159;52.414;9.784;2023-02-27T01:41:16;7.97;;;4.00;;
6251;SDS011;3159;52.414;9.784;2023-02-27T01:43:56;8.60;;;4.30;;
6251;SDS011;3159;52.414;9.784;2023-02-27T01:46:24;7.23;;;4.13;;
6251;SDS011;3159;52.414;9.784;2023-02-27T01:48:51;5.43;;;3.83;;
6251;SDS011;3159;52.414;9.784;2023-02-27T01:51:23;6.83;;;3.97;;
6251;SDS011;3159;52.414;9.784;2023-02-27T01:53:53;9.57;;;4.10;;
6251;SDS011;3159;52.414;9.784;2023-02-27T01:56:22;8.60;;;3.80;;
6251;SDS011;3159;52.414;9.784;2023-02-27T01:58:53;4.13;;;3.73;;
6251;SDS011;3159;52.414;9.784;2023-02-27T02:01:22;4.80;;;3.33;;
6251;SDS011;3159;52.414;9.784;2023-02-27T02:03:52;4.63;;;3.70;;
6251;SDS011;3159;52.414;9.784;2023-02-27T02:06:23;7.93;;;3.37;;
6251;SDS011;3159;52.414;9.784;2023-02-27T02:08:50;6.37;;;3.30;;
6251;SDS011;3159;52.414;9.784;2023-02-27T02:11:21;9.27;;;4.00;;
6251;SDS011;3159;52.414;9.784;2023-02-27T02:13:52;5.23;;;3.50;;
6251;SDS011;3159;52.414;9.784;2023-02-27T02:16:26;6.93;;;3.73;;
6251;SDS011;3159;52.414;9.784;2023-02-27T02:19:05;6.00;;;3.57;;
6251;SDS011;3159;52.414;9.784;2023-02-27T02:27:59;6.63;;;4.30;;
6251;SDS011;3159;52.414;9.784;2023-02-27T02:30:46;6.30;;;3.73;;
6251;SDS011;3159;52.414;9.784;2023-02-27T02:33:55;5.63;;;3.73;;
6251;SDS011;3159;52.414;9.784;2023-02-27T02:36:46;8.37;;;4.30;;
6251;SDS011;3159;52.414;9.784;2023-02-27T02:39:37;6.77;;;3.80;;
6251;SDS011;3159;52.414;9.784;2023-02-27T02:42:23;7.83;;;3.90;;
6251;SDS011;3159;52.414;9.784;2023-02-27T02:44:55;6.80;;;4.10;;
6251;SDS011;3159;52.414;9.784;2023-02-27T02:47:30;8.07;;;4.40;;
6251;SDS011;3159;52.414;9.784;2023-02-27T02:50:03;6.83;;;4.20;;
6251;SDS011;3159;52.414;9.784;2023-02-27T02:52:39;6.90;;;3.87;;
6251;SDS011;3159;52.414;9.784;2023-02-27T02:55:15;8.90;;;4.23;;
6251;SDS011;3159;52.414;9.784;2023-02-27T02:57:49;5.23;;;3.50;;
6251;SDS011;3159;52.414;9.784;2023-02-27T03:00:20;6.37;;;3.97;;
6251;SDS011;3159;52.414;9.784;2023-02-27T03:02:53;9.53;;;4.10;;
6251;SDS011;3159;52.414;9.784;2023-02-27T03:05:26;8.17;;;4.17;;
6251;SDS011;3159;52.414;9.784;2023-02-27T03:07:59;6.77;;;4.03;;
6251;SDS011;3159;52.414;9.784;2023-02-27T03:10:31;8.83;;;3.90;;
6251;SDS011;3159;52.414;9.784;2023-02-27T03:13:02;7.23;;;3.80;;
6251;SDS011;3159;52.414;9.784;2023-02-27T03:15:34;10.47;;;4.43;;
6251;SDS011;3159;52.414;9.784;2023-02-27T03:18:07;9.77;;;4.10;;
6251;SDS011;3159;52.414;9.784;2023-02-27T03:20:44;8.67;;;4.00;;
6251;SDS011;3159;52.414;9.784;2023-02-27T03:23:15;11.83;;;4.07;;
6251;SDS011;3159;52.414;9.784;2023-02-27T03:25:46;9.83;;;3.77;;
6251;SDS011;3159;52.414;9.784;2023-02-27T03:28:16;6.73;;;3.90;;
6251;SDS011;3159;52.414;9.784;2023-02-27T03:30:49;4.97;;;3.73;;
6251;SDS011;3159;52.414;9.784;2023-02-27T03:33:20;5.47;;;3.73;;
6251;SDS011;3159;52.414;9.784;2023-02-27T03:35:54;7.17;;;3.80;;
6251;SDS011;3159;52.414;9.784;2023-02-27T03:38:29;6.00;;;3.67;;
6251;SDS011;3159;52.414;9.784;2023-02-27T03:41:04;6.77;;;4.03;;
6251;SDS011;3159;52.414;9.784;2023-02-27T03:43:39;7.50;;;3.70;;
6251;SDS011;3159;52.414;9.784;2023-02-27T03:46:13;7.33;;;3.77;;
6251;SDS011;3159;52.414;9.784;2023-02-27T03:48:43;6.70;;;3.20;;
6251;SDS011;3159;52.414;9.784;2023-02-27T03:51:10;5.00;;;3.40;;
6251;SDS011;3159;52.414;9.784;2023-02-27T03:53:39;6.80;;;3.50;;
6251;SDS011;3159;52.414;9.784;2023-02-27T03:56:13;6.70;;;4.10;;
6251;SDS011;3159;52.414;9.784;2023-02-27T03:58:43;5.73;;;3.90;;
6251;SDS011;3159;52.414;9.784;2023-02-27T04:01:10;5.63;;;3.37;;
6251;SDS011;3159;52.414;9.784;2023-02-27T04:03:39;4.70;;;3.63;;
6251;SDS011;3159;52.414;9.784;2023-02-27T04:06:10;7.80;;;3.50;;
6251;SDS011;3159;52.414;9.784;2023-02-27T04:08:56;5.10;;;3.60;;
6251;SDS011;3159;52.414;9.784;2023-02-27T04:11:34;6.10;;;3.30;;
6251;SDS011;3159;52.414;9.784;2023-02-27T04:14:15;6.73;;;3.50;;
6251;SDS011;3159;52.414;9.784;2023-02-27T04:16:57;5.17;;;3.53;;
6251;SDS011;3159;52.414;9.784;2023-02-27T04:19:37;5.87;;;3.30;;
6251;SDS011;3159;52.414;9.784;2023-02-27T04:22:20;4.33;;;3.33;;
6251;SDS011;3159;52.414;9.784;2023-02-27T04:25:00;5.37;;;3.57;;
6251;SDS011;3159;52.414;9.784;2023-02-27T04:27:38;5.50;;;3.50;;
6251;SDS011;3159;52.414;9.784;2023-02-27T04:30:13;7.37;;;3.97;;
6251;SDS011;3159;52.414;9.784;2023-02-27T04:32:50;5.97;;;3.60;;
6251;SDS011;3159;52.414;9.784;2023-02-27T04:35:23;11.20;;;3.97;;
6251;SDS011;3159;52.414;9.784;2023-02-27T04:37:54;5.03;;;3.50;;
6251;SDS011;3159;52.414;9.784;2023-02-27T04:40:26;6.13;;;3.70;;
6251;SDS011;3159;52.414;9.784;2023-02-27T04:42:59;7.37;;;3.67;;
6251;SDS011;3159;52.414;9.784;2023-02-27T04:45:29;5.77;;;3.27;;
6251;SDS011;3159;52.414;9.784;2023-02-27T04:48:00;5.90;;;3.53;;
6251;SDS011;3159;52.414;9.784;2023-02-27T04:50:32;6.57;;;3.90;;
6251;SDS011;3159;52.414;9.784;2023-02-27T04:53:04;6.10;;;3.30;;
6251;SDS011;3159;52.414;9.784;2023-02-27T04:55:36;8.20;;;3.77;;
6251;SDS011;3159;52.414;9.784;2023-02-27T04:58:10;8.30;;;3.67;;
6251;SDS011;3159;52.414;9.784;2023-02-27T05:00:40;9.70;;;4.23;;
6251;SDS011;3159;52.414;9.784;2023-02-27T05:03:12;8.13;;;4.53;;
6251;SDS011;3159;52.414;9.784;2023-02-27T05:05:41;7.80;;;4.73;;
6251;SDS011;3159;52.414;9.784;2023-02-27T05:08:13;9.43;;;5.00;;
6251;SDS011;3159;52.414;9.784;2023-02-27T05:10:48;7.97;;;4.40;;
6251;SDS011;3159;52.414;9.784;2023-02-27T05:13:19;7.93;;;4.50;;
6251;SDS011;3159;52.414;9.784;2023-02-27T05:15:51;8.80;;;4.93;;
6251;SDS011;3159;52.414;9.784;2023-02-27T05:18:22;6.70;;;4.33;;
6251;SDS011;3159;52.414;9.784;2023-02-27T05:20:52;6.90;;;4.27;;
6251;SDS011;3159;52.414;9.784;2023-02-27T05:23:29;7.10;;;4.60;;
6251;SDS011;3159;52.414;9.784;2023-02-27T05:26:03;8.93;;;5.20;;
6251;SDS011;3159;52.414;9.784;2023-02-27T05:28:40;7.23;;;4.30;;
6251;SDS011;3159;52.414;9.784;2023-02-27T05:31:17;12.07;;;5.57;;
6251;SDS011;3159;52.414;9.784;2023-02-27T05:33:50;10.47;;;4.90;;
6251;SDS011;3159;52.414;9.784;2023-02-27T05:36:23;9.53;;;5.40;;
6251;SDS011;3159;52.414;9.784;2023-02-27T05:38:56;5.90;;;4.43;;
6251;SDS011;3159;52.414;9.784;2023-02-27T05:41:26;7.37;;;4.40;;
6251;SDS011;3159;52.414;9.784;2023-02-27T05:44:00;8.30;;;4.27;;
6251;SDS011;3159;52.414;9.784;2023-02-27T05:46:30;7.43;;;4.30;;
6251;SDS011;3159;52.414;9.784;2023-02-27T05:49:03;6.83;;;4.67;;
6251;SDS011;3159;52.414;9.784;2023-02-27T05:51:32;7.13;;;4.03;;
6251;SDS011;3159;52.414;9.784;2023-02-27T05:54:03;8.17;;;4.43;;
6251;SDS011;3159;52.414;9.784;2023-02-27T05:56:34;9.60;;;4.13;;
6251;SDS011;3159;52.414;9.784;2023-02-27T05:59:05;7.53;;;4.10;;
6251;SDS011;3159;52.414;9.784;2023-02-27T06:01:35;7.77;;;4.13;;
6251;SDS011;3159;52.414;9.784;2023-02-27T06:04:02;5.37;;;3.60;;
6251;SDS011;3159;52.414;9.784;2023-02-27T06:06:29;7.33;;;4.00;;
6251;SDS011;3159;52.414;9.784;2023-02-27T06:08:56;6.63;;;3.83;;
6251;SDS011;3159;52.414;9.784;2023-02-27T06:11:23;6.90;;;4.03;;
6251;SDS011;3159;52.414;9.784;2023-02-27T06:13:50;5.47;;;3.80;;
6251;SDS011;3159;52.414;9.784;2023-02-27T06:16:18;6.10;;;4.00;;
6251;SDS011;3159;52.414;9.784;2023-02-27T06:18:45;4.80;;;3.70;;
6251;SDS011;3159;52.414;9.784;2023-02-27T06:21:11;12.03;;;4.60;;
6251;SDS011;3159;52.414;9.784;2023-02-27T06:23:38;9.63;;;4.67;;
6251;SDS011;3159;52.414;9.784;2023-02-27T06:26:05;10.13;;;4.77;;
6251;SDS011;3159;52.414;9.784;2023-02-27T06:28:32;6.90;;;4.47;;
6251;SDS011;3159;52.414;9.784;2023-02-27T06:30:59;6.23;;;4.70;;
6251;SDS011;3159;52.414;9.784;2023-02-27T06:33:27;9.60;;;5.43;;
6251;SDS011;3159;52.414;9.784;2023-02-27T06:35:54;9.07;;;5.00;;
6251;SDS011;3159;52.414;9.784;2023-02-27T06:38:21;8.47;;;4.73;;
6251;SDS011;3159;52.414;9.784;2023-02-27T06:40:49;5.63;;;4.50;;
6251;SDS011;3159;52.414;9.784;2023-02-27T06:43:16;11.27;;;5.30;;
6251;SDS011;3159;52.414;9.784;2023-02-27T06:45:42;10.37;;;4.97;;
6251;SDS011;3159;52.414;9.784;2023-02-27T06:48:09;11.10;;;5.50;;
6251;SDS011;3159;52.414;9.784;2023-02-27T06:50:38;8.03;;;5.40;;
6251;SDS011;3159;52.414;9.784;2023-02-27T06:53:05;9.80;;;5.93;;
6251;SDS011;3159;52.414;9.784;2023-02-27T06:55:32;9.63;;;5.10;;
6251;SDS011;3159;52.414;9.784;2023-02-27T06:57:58;9.40;;;4.97;;
6251;SDS011;3159;52.414;9.784;2023-02-27T07:00:25;9.13;;;5.13;;
6251;SDS011;3159;52.414;9.784;2023-02-27T07:02:53;12.83;;;5.60;;
6251;SDS011;3159;52.414;9.784;2023-02-27T07:05:20;6.27;;;4.90;;
6251;SDS011;3159;52.414;9.784;2023-02-27T07:07:48;9.37;;;6.20;;
6251;SDS011;3159;52.414;9.784;2023-02-27T07:10:15;10.20;;;5.67;;
6251;SDS011;3159;52.414;9.784;2023-02-27T07:12:42;9.07;;;5.10;;
6251;SDS011;3159;52.414;9.784;2023-02-27T07:15:09;11.53;;;5.57;;
6251;SDS011;3159;52.414;9.784;2023-02-27T07:17:36;8.40;;;5.90;;
6251;SDS011;3159;52.414;9.784;2023-02-27T07:20:03;11.10;;;6.50;;
6251;SDS011;3159;52.414;9.784;2023-02-27T07:22:31;9.77;;;6.10;;
6251;SDS011;3159;52.414;9.784;2023-02-27T07:24:59;12.40;;;6.90;;
6251;SDS011;3159;52.414;9.784;2023-02-27T07:27:26;10.80;;;6.70;;
6251;SDS011;3159;52.414;9.784;2023-02-27T07:29:53;14.43;;;6.70;;
6251;SDS011;3159;52.414;9.784;2023-02-27T07:32:20;9.33;;;6.50;;
6251;SDS011;3159;52.414;9.784;2023-02-27T07:34:47;9.97;;;6.13;;
6251;SDS011;3159;52.414;9.784;2023-02-27T07:37:14;11.93;;;6.50;;
6251;SDS011;3159;52.414;9.784;2023-02-27T07:39:41;11.03;;;5.53;;
6251;SDS011;3159;52.414;9.784;2023-02-27T07:42:10;12.03;;;5.83;;
6251;SDS011;3159;52.414;9.784;2023-02-27T07:44:37;8.43;;;5.67;;
6251;SDS011;3159;52.414;9.784;2023-02-27T07:47:04;10.67;;;6.20;;
6251;SDS011;3159;52.414;9.784;2023-02-27T07:49:31;10.23;;;5.53;;
6251;SDS011;3159;52.414;9.784;2023-02-27T07:51:58;8.43;;;5.30;;
6251;SDS011;3159;52.414;9.784;2023-02-27T07:54:25;8.33;;;5.33;;
6251;SDS011;3159;52.414;9.784;2023-02-27T07:56:51;7.87;;;5.17;;
6251;SDS011;3159;52.414;9.784;2023-02-27T07:59:20;8.83;;;5.63;;
6251;SDS011;3159;52.414;9.784;2023-02-27T08:01:46;11.13;;;5.03;;
6251;SDS011;3159;52.414;9.784;2023-02-27T08:04:13;9.13;;;5.30;;
6251;SDS011;3159;52.414;9.784;2023-02-27T08:06:40;10.90;;;5.07;;
6251;SDS011;3159;52.414;9.784;2023-02-27T08:09:07;8.00;;;4.83;;
6251;SDS011;3159;52.414;9.784;2023-02-27T08:11:34;8.47;;;4.63;;
6251;SDS011;3159;52.414;9.784;2023-02-27T08:14:01;6.73;;;4.73;;
6251;SDS011;3159;52.414;9.784;2023-02-27T08:16:29;6.10;;;4.10;;
6251;SDS011;3159;52.414;9.784;2023-02-27T08:18:56;7.70;;;4.77;;
6251;SDS011;3159;52.414;9.784;2023-02-27T08:21:24;6.57;;;4.23;;
6251;SDS011;3159;52.414;9.784;2023-02-27T08:23:51;4.80;;;4.10;;
6251;SDS011;3159;52.414;9.784;2023-02-27T08:26:18;7.77;;;4.60;;
6251;SDS011;3159;52.414;9.784;2023-02-27T08:28:45;9.37;;;4.23;;
6251;SDS011;3159;52.414;9.784;2023-02-27T08:31:13;8.17;;;4.60;;
6251;SDS011;3159;52.414;9.784;2023-02-27T08:33:41;4.87;;;4.03;;
6251;SDS011;3159;52.414;9.784;2023-02-27T08:36:08;7.83;;;4.23;;
6251;SDS011;3159;52.414;9.784;2023-02-27T08:38:35;6.53;;;4.30;;
6251;SDS011;3159;52.414;9.784;2023-02-27T08:41:01;5.00;;;3.83;;
6251;SDS011;3159;52.414;9.784;2023-02-27T08:43:29;8.03;;;4.27;;
6251;SDS011;3159;52.414;9.784;2023-02-27T08:45:56;6.00;;;4.43;;
6251;SDS011;3159;52.414;9.784;2023-02-27T08:48:22;5.77;;;4.17;;
6251;SDS011;3159;52.414;9.784;2023-02-27T08:50:52;8.43;;;4.07;;
6251;SDS011;3159;52.414;9.784;2023-02-27T08:53:19;6.20;;;4.50;;
6251;SDS011;3159;52.414;9.784;2023-02-27T08:55:47;6.93;;;3.63;;
6251;SDS011;3159;52.414;9.784;2023-02-27T08:58:15;8.33;;;4.50;;
6251;SDS011;3159;52.414;9.784;2023-02-27T09:00:42;5.60;;;3.77;;
6251;SDS011;3159;52.414;9.784;2023-02-27T09:03:08;6.80;;;4.03;;
6251;SDS011;3159;52.414;9.784;2023-02-27T09:05:35;8.57;;;4.00;;
6251;SDS011;3159;52.414;9.784;2023-02-27T09:08:04;7.70;;;3.97;;
6251;SDS011;3159;52.414;9.784;2023-02-27T09:10:31;7.93;;;3.83;;
6251;SDS011;3159;52.414;9.784;2023-02-27T09:12:58;9.30;;;3.93;;
6251;SDS011;3159;52.414;9.784;2023-02-27T09:15:25;7.57;;;3.93;;
6251;SDS011;3159;52.414;9.784;2023-02-27T09:17:52;6.53;;;4.13;;
6251;SDS011;3159;52.414;9.784;2023-02-27T09:20:20;5.83;;;3.67;;
6251;SDS011;3159;52.414;9.784;2023-02-27T09:22:47;8.20;;;4.43;;
6251;SDS011;3159;52.414;9.784;2023-02-27T09:25:15;7.30;;;3.90;;
6251;SDS011;3159;52.414;9.784;2023-02-27T09:27:42;6.13;;;3.67;;
6251;SDS011;3159;52.414;9.784;2023-02-27T09:30:09;6.37;;;4.03;;
6251;SDS011;3159;52.414;9.784;2023-02-27T09:32:37;6.67;;;4.00;;
6251;SDS011;3159;52.414;9.784;2023-02-27T09:35:04;6.27;;;3.60;;
6251;SDS011;3159;52.414;9.784;2023-02-27T09:37:33;11.17;;;4.23;;
6251;SDS011;3159;52.414;9.784;2023-02-27T09:40:00;10.00;;;4.10;;
6251;SDS011;3159;52.414;9.784;2023-02-27T09:42:32;6.57;;;3.93;;
6251;SDS011;3159;52.414;9.784;2023-02-27T09:45:03;5.67;;;3.93;;
6251;SDS011;3159;52.414;9.784;2023-02-27T09:47:33;9.00;;;3.70;;
6251;SDS011;3159;52.414;9.784;2023-02-27T09:50:04;4.83;;;3.40;;
6251;SDS011;3159;52.414;9.784;2023-02-27T09:52:34;6.87;;;4.00;;
6251;SDS011;3159;52.414;9.784;2023-02-27T09:55:03;7.27;;;3.70;;
6251;SDS011;3159;52.414;9.784;2023-02-27T09:57:38;9.93;;;3.97;;
6251;SDS011;3159;52.414;9.784;2023-02-27T10:00:12;6.63;;;3.73;;
6251;SDS011;3159;52.414;9.784;2023-02-27T10:02:53;6.73;;;3.50;;
6251;SDS011;3159;52.414;9.784;2023-02-27T10:05:30;5.73;;;3.93;;
6251;SDS011;3159;52.414;9.784;2023-02-27T10:08:05;9.67;;;3.93;;
6251;SDS011;3159;52.414;9.784;2023-02-27T10:10:42;6.03;;;3.67;;
6251;SDS011;3159;52.414;9.784;2023-02-27T10:13:24;7.13;;;3.50;;
6251;SDS011;3159;52.414;9.784;2023-02-27T10:15:58;7.47;;;3.73;;
6251;SDS011;3159;52.414;9.784;2023-02-27T10:18:28;8.93;;;3.47;;
6251;SDS011;3159;52.414;9.784;2023-02-27T10:20:59;4.70;;;2.93;;
6251;SDS011;3159;52.414;9.784;2023-02-27T10:23:31;6.23;;;2.50;;
6251;SDS011;3159;52.414;9.784;2023-02-27T10:26:04;4.47;;;2.63;;
6251;SDS011;3159;52.414;9.784;2023-02-27T10:28:33;5.87;;;2.47;;
6251;SDS011;3159;52.414;9.784;2023-02-27T10:31:00;3.40;;;1.67;;
6251;SDS011;3159;52.414;9.784;2023-02-27T10:33:30;5.90;;;1.80;;
6251;SDS011;3159;52.414;9.784;2023-02-27T10:36:00;3.70;;;1.80;;
6251;SDS011;3159;52.414;9.784;2023-02-27T10:38:30;3.80;;;1.70;;
6251;SDS011;3159;52.414;9.784;2023-02-27T10:40:59;4.23;;;1.70;;
6251;SDS011;3159;52.414;9.784;2023-02-27T10:43:27;4.97;;;2.13;;
6251;SDS011;3159;52.414;9.784;2023-02-27T10:45:56;4.17;;;2.00;;
6251;SDS011;3159;52.414;9.784;2023-02-27T10:48:26;4.47;;;2.20;;
6251;SDS011;3159;52.414;9.784;2023-02-27T10:50:54;5.93;;;2.00;;
6251;SDS011;3159;52.414;9.784;2023-02-27T10:53:49;5.40;;;2.20;;
6251;SDS011;3159;52.414;9.784;2023-02-27T10:56:19;4.87;;;2.17;;
6251;SDS011;3159;52.414;9.784;2023-02-27T10:59:00;4.27;;;1.87;;
6251;SDS011;3159;52.414;9.784;2023-02-27T11:01:39;3.83;;;2.40;;
6251;SDS011;3159;52.414;9.784;2023-02-27T11:04:09;6.30;;;2.30;;
6251;SDS011;3159;52.414;9.784;2023-02-27T11:06:38;4.60;;;2.37;;
6251;SDS011;3159;52.414;9.784;2023-02-27T11:09:11;3.53;;;1.83;;
6251;SDS011;3159;52.414;9.784;2023-02-27T11:11:43;5.77;;;2.10;;
6251;SDS011;3159;52.414;9.784;2023-02-27T11:14:22;4.73;;;2.20;;
6251;SDS011;3159;52.414;9.784;2023-02-27T11:16:55;6.23;;;2.03;;
6251;SDS011;3159;52.414;9.784;2023-02-27T11:19:24;4.13;;;1.73;;
6251;SDS011;3159;52.414;9.784;2023-02-27T11:22:03;4.87;;;1.90;;
6251;SDS011;3159;52.414;9.784;2023-02-27T11:24:32;4.77;;;2.27;;
6251;SDS011;3159;52.414;9.784;2023-02-27T11:27:00;4.43;;;2.10;;
6251;SDS011;3159;52.414;9.784;2023-02-27T11:29:29;5.30;;;2.00;;
6251;SDS011;3159;52.414;9.784;2023-02-27T11:31:57;3.43;;;2.30;;
6251;SDS011;3159;52.414;9.784;2023-02-27T11:34:28;2.90;;;2.00;;
6251;SDS011;3159;52.414;9.784;2023-02-27T11:36:57;3.40;;;1.83;;
6251;SDS011;3159;52.414;9.784;2023-02-27T11:39:32;4.20;;;1.87;;
6251;SDS011;3159;52.414;9.784;2023-02-27T11:42:06;7.70;;;1.87;;
6251;SDS011;3159;52.414;9.784;2023-02-27T11:44:39;3.57;;;1.60;;
6251;SDS011;3159;52.414;9.784;2023-02-27T11:47:20;4.63;;;2.03;;
6251;SDS011;3159;52.414;9.784;2023-02-27T11:49:58;4.87;;;1.93;;
6251;SDS011;3159;52.414;9.784;2023-02-27T11:52:46;5.83;;;1.93;;
6251;SDS011;3159;52.414;9.784;2023-02-27T11:55:17;5.27;;;2.13;;
6251;SDS011;3159;52.414;9.784;2023-02-27T11:57:48;3.50;;;1.80;;
6251;SDS011;3159;52.414;9.784;2023-02-27T12:00:19;4.17;;;1.40;;
6251;SDS011;3159;52.414;9.784;2023-02-27T12:02:52;2.83;;;1.73;;
6251;SDS011;3159;52.414;9.784;2023-02-27T12:05:26;3.37;;;1.67;;
6251;SDS011;3159;52.414;9.784;2023-02-27T12:07:57;2.33;;;1.70;;
6251;SDS011;3159;52.414;9.784;2023-02-27T12:10:33;4.00;;;1.70;;
6251;SDS011;3159;52.414;9.784;2023-02-27T12:13:05;5.63;;;1.90;;
6251;SDS011;3159;52.414;9.784;2023-02-27T12:15:41;3.73;;;1.60;;
6251;SDS011;3159;52.414;9.784;2023-02-27T12:18:13;4.17;;;1.80;;
6251;SDS011;3159;52.414;9.784;2023-02-27T12:20:46;5.10;;;1.83;;
6251;SDS011;3159;52.414;9.784;2023-02-27T12:23:19;3.70;;;2.40;;
6251;SDS011;3159;52.414;9.784;2023-02-27T12:25:51;5.57;;;1.90;;
6251;SDS011;3159;52.414;9.784;2023-02-27T12:28:26;6.90;;;1.90;;
6251;SDS011;3159;52.414;9.784;2023-02-27T12:31:04;3.27;;;1.63;;
6251;SDS011;3159;52.414;9.784;2023-02-27T12:33:43;3.40;;;1.87;;
6251;SDS011;3159;52.414;9.784;2023-02-27T12:36:14;5.60;;;2.07;;
6251;SDS011;3159;52.414;9.784;2023-02-27T12:38:41;2.37;;;1.40;;
6251;SDS011;3159;52.414;9.784;2023-02-27T12:44:10;4.13;;;1.50;;
6251;SDS011;3159;52.414;9.784;2023-02-27T12:46:54;2.27;;;1.60;;
6251;SDS011;3159;52.414;9.784;2023-02-27T12:49:33;4.73;;;1.60;;
6251;SDS011;3159;52.414;9.784;2023-02-27T12:52:13;3.40;;;1.80;;
6251;SDS011;3159;52.414;9.784;2023-02-27T12:54:52;2.00;;;1.63;;
6251;SDS011;3159;52.414;9.784;2023-02-27T12:57:34;2.53;;;1.77;;
6251;SDS011;3159;52.414;9.784;2023-02-27T13:00:11;2.00;;;1.63;;
6251;SDS011;3159;52.414;9.784;2023-02-27T13:02:44;5.53;;;1.40;;
6251;SDS011;3159;52.414;9.784;2023-02-27T13:05:29;3.30;;;1.90;;
6251;SDS011;3159;52.414;9.784;2023-02-27T13:08:04;2.47;;;1.63;;
6251;SDS011;3159;52.414;9.784;2023-02-27T13:10:38;2.70;;;1.50;;
6251;SDS011;3159;52.414;9.784;2023-02-27T13:13:12;3.40;;;1.90;;
6251;SDS011;3159;52.414;9.784;2023-02-27T13:15:47;4.23;;;1.80;;
6251;SDS011;3159;52.414;9.784;2023-02-27T13:18:21;3.27;;;1.40;;
6251;SDS011;3159;52.414;9.784;2023-02-27T13:20:58;3.03;;;1.70;;
6251;SDS011;3159;52.414;9.784;2023-02-27T13:23:30;2.27;;;1.37;;
6251;SDS011;3159;52.414;9.784;2023-02-27T13:26:11;3.53;;;1.80;;
6251;SDS011;3159;52.414;9.784;2023-02-27T13:28:42;2.83;;;1.47;;
6251;SDS011;3159;52.414;9.784;2023-02-27T13:31:12;5.57;;;1.73;;
6251;SDS011;3159;52.414;9.784;2023-02-27T13:33:51;2.17;;;1.53;;
6251;SDS011;3159;52.414;9.784;2023-02-27T13:36:23;4.30;;;1.60;;
6251;SDS011;3159;52.414;9.784;2023-02-27T13:38:55;2.27;;;1.37;;
6251;SDS011;3159;52.414;9.784;2023-02-27T13:53:13;3.97;;;1.33;;
6251;SDS011;3159;52.414;9.784;2023-02-27T13:55:43;3.10;;;1.20;;
6251;SDS011;3159;52.414;9.784;2023-02-27T13:58:14;2.13;;;1.10;;
6251;SDS011;3159;52.414;9.784;2023-02-27T14:00:52;3.87;;;1.30;;
6251;SDS011;3159;52.414;9.784;2023-02-27T14:03:25;1.80;;;1.10;;
6251;SDS011;3159;52.414;9.784;2023-02-27T14:05:55;3.03;;;1.60;;
6251;SDS011;3159;52.414;9.784;2023-02-27T14:08:26;2.67;;;1.50;;
6251;SDS011;3159;52.414;9.784;2023-02-27T14:10:55;10.50;;;3.73;;
6251;SDS011;3159;52.414;9.784;2023-02-27T14:22:29;2.20;;;1.27;;
6251;SDS011;3159;52.414;9.784;2023-02-27T14:25:21;1.70;;;1.10;;
6251;SDS011;3159;52.414;9.784;2023-02-27T14:27:54;2.43;;;1.20;;
6251;SDS011;3159;52.414;9.784;2023-02-27T14:30:27;3.60;;;1.53;;
6251;SDS011;3159;52.414;9.784;2023-02-27T14:32:58;1.93;;;1.20;;
6251;SDS011;3159;52.414;9.784;2023-02-27T14:35:32;1.20;;;0.97;;
6251;SDS011;3159;52.414;9.784;2023-02-27T14:37:59;2.93;;;1.30;;
6251;SDS011;3159;52.414;9.784;2023-02-27T14:40:32;2.07;;;1.10;;
6251;SDS011;3159;52.414;9.784;2023-02-27T14:43:05;2.60;;;1.20;;
6251;SDS011;3159;52.414;9.784;2023-02-27T14:45:40;2.53;;;1.13;;
6251;SDS011;3159;52.414;9.784;2023-02-27T14:48:07;1.50;;;1.00;;
6251;SDS011;3159;52.414;9.784;2023-02-27T14:50:37;1.93;;;1.10;;
6251;SDS011;3159;52.414;9.784;2023-02-27T14:53:19;4.60;;;1.33;;
6251;SDS011;3159;52.414;9.784;2023-02-27T14:55:52;3.17;;;1.10;;
6251;SDS011;3159;52.414;9.784;2023-02-27T14:58:20;3.07;;;0.93;;
6251;SDS011;3159;52.414;9.784;2023-02-27T15:00:47;2.63;;;1.47;;
6251;SDS011;3159;52.414;9.784;2023-02-27T15:03:23;3.30;;;1.13;;
6251;SDS011;3159;52.414;9.784;2023-02-27T15:05:55;4.57;;;1.20;;
6251;SDS011;3159;52.414;9.784;2023-02-27T15:08:27;1.80;;;1.10;;
6251;SDS011;3159;52.414;9.784;2023-02-27T15:10:56;2.30;;;1.27;;
6251;SDS011;3159;52.414;9.784;2023-02-27T15:13:26;2.50;;;1.40;;
6251;SDS011;3159;52.414;9.784;2023-02-27T15:18:55;1.30;;;1.20;;
6251;SDS011;3159;52.414;9.784;2023-02-27T15:21:26;2.30;;;1.27;;
6251;SDS011;3159;52.414;9.784;2023-02-27T15:23:56;2.47;;;1.10;;
6251;SDS011;3159;52.414;9.784;2023-02-27T15:26:24;2.40;;;1.30;;
6251;SDS011;3159;52.414;9.784;2023-02-27T15:28:54;3.27;;;1.20;;
6251;SDS011;3159;52.414;9.784;2023-02-27T15:31:23;2.13;;;0.87;;
6251;SDS011;3159;52.414;9.784;2023-02-27T15:33:53;1.03;;;0.83;;
6251;SDS011;3159;52.414;9.784;2023-02-27T15:36:21;5.57;;;1.50;;
6251;SDS011;3159;52.414;9.784;2023-02-27T15:39:02;2.13;;;1.30;;
6251;SDS011;3159;52.414;9.784;2023-02-27T15:41:31;4.00;;;1.43;;
6251;SDS011;3159;52.414;9.784;2023-02-27T15:43:58;3.63;;;1.10;;
6251;SDS011;3159;52.414;9.784;2023-02-27T15:46:27;2.97;;;1.00;;
6251;SDS011;3159;52.414;9.784;2023-02-27T15:48:54;2.40;;;1.30;;
6251;SDS011;3159;52.414;9.784;2023-02-27T15:51:24;2.20;;;1.53;;
6251;SDS011;3159;52.414;9.784;2023-02-27T15:53:52;3.03;;;1.10;;
6251;SDS011;3159;52.414;9.784;2023-02-27T15:56:25;2.20;;;1.17;;
6251;SDS011;3159;52.414;9.784;2023-02-27T15:58:54;3.03;;;1.03;;
6251;SDS011;3159;52.414;9.784;2023-02-27T16:01:24;2.57;;;1.20;;
6251;SDS011;3159;52.414;9.784;2023-02-27T16:03:54;1.73;;;1.20;;
6251;SDS011;3159;52.414;9.784;2023-02-27T16:06:23;3.17;;;1.77;;
6251;SDS011;3159;52.414;9.784;2023-02-27T16:08:53;3.33;;;1.50;;
6251;SDS011;3159;52.414;9.784;2023-02-27T16:11:22;3.93;;;1.40;;